createdAt,value
2019-04-01T00:00:50.654Z,99741.97
2019-04-01T00:03:21.140Z,99737.84
2019-04-01T00:05:51.598Z,99740.08
2019-04-01T00:08:22.050Z,99738.98
2019-04-01T00:10:52.517Z,99739.26
2019-04-01T00:13:23.011Z,99741.14
2019-04-01T00:15:53.537Z,99725.97
2019-04-01T00:18:24.078Z,99719.95
2019-04-01T00:20:54.533Z,99729.50
2019-04-01T00:23:25.036Z,99729.64
2019-04-01T00:25:55.518Z,99732.06
2019-04-01T00:28:26.019Z,99737.08
2019-04-01T00:30:56.472Z,99736.55
2019-04-01T00:33:26.965Z,99730.08
2019-04-01T00:35:57.508Z,99736.98
2019-04-01T00:38:27.950Z,99731.72
2019-04-01T00:40:58.393Z,99725.71
2019-04-01T00:43:56.657Z,99725.45
2019-04-01T00:46:27.261Z,99728.01
2019-04-01T00:48:57.761Z,99724.38
2019-04-01T00:51:28.221Z,99725.27
2019-04-01T00:53:58.716Z,99726.75
2019-04-01T00:56:29.171Z,99725.86
2019-04-01T00:58:59.630Z,99732.95
2019-04-01T01:01:30.125Z,99735.09
2019-04-01T01:04:00.585Z,99732.11
2019-04-01T01:06:31.105Z,99731.86
2019-04-01T01:09:01.638Z,99733.11
2019-04-01T01:11:32.091Z,99728.54
2019-04-01T01:14:02.562Z,99728.14
2019-04-01T01:16:33.026Z,99721.46
2019-04-01T01:19:03.489Z,99721.75
2019-04-01T01:21:34.880Z,99718.23
2019-04-01T01:24:05.695Z,99718.63
2019-04-01T01:26:36.224Z,99711.81
2019-04-01T01:29:06.677Z,99717.63
2019-04-01T01:31:37.123Z,99710.48
2019-04-01T01:34:07.629Z,99711.44
2019-04-01T01:36:38.118Z,99714.78
2019-04-01T01:39:08.572Z,99706.08
2019-04-01T01:41:39.051Z,99708.89
2019-04-01T01:44:09.558Z,99703.30
2019-04-01T01:46:40.023Z,99699.22
2019-04-01T01:49:10.490Z,99701.19
2019-04-01T01:51:40.952Z,99704.09
2019-04-01T01:54:11.444Z,99702.20
2019-04-01T01:56:43.189Z,99703.35
2019-04-01T01:59:13.684Z,99702.45
2019-04-01T02:01:44.146Z,99699.17
2019-04-01T02:04:14.732Z,99699.83
2019-04-01T02:06:45.195Z,99700.23
2019-04-01T02:09:15.692Z,99702.08
2019-04-01T02:11:46.190Z,99707.64
2019-04-01T02:14:16.640Z,99710.77
2019-04-01T02:16:47.136Z,99712.91
2019-04-01T02:19:17.636Z,99714.49
2019-04-01T02:21:48.135Z,99715.38
2019-04-01T02:24:18.587Z,99719.36
2019-04-01T02:26:49.032Z,99721.40
2019-04-01T02:29:19.525Z,99723.36
2019-04-01T02:31:50.031Z,99723.56
2019-04-01T02:34:20.476Z,99725.03
2019-04-01T02:36:50.935Z,99722.02
2019-04-01T02:39:21.420Z,99723.94
2019-04-01T02:41:51.874Z,99725.89
2019-04-01T02:44:22.374Z,99724.34
2019-04-01T02:46:52.894Z,99719.32
2019-04-01T02:49:23.374Z,99718.99
2019-04-01T02:51:53.937Z,99716.70
2019-04-01T02:54:24.463Z,99717.44
2019-04-01T02:56:54.921Z,99714.02
2019-04-01T02:59:25.389Z,99616.27
2019-04-01T03:01:55.912Z,99715.81
2019-04-01T03:04:26.410Z,99714.58
2019-04-01T03:06:56.873Z,99720.13
2019-04-01T03:09:27.397Z,99725.11
2019-04-01T03:11:57.854Z,99720.33
2019-04-01T03:14:28.355Z,99725.73
2019-04-01T03:16:58.823Z,99725.73
2019-04-01T03:19:29.317Z,99727.28
2019-04-01T03:21:59.767Z,99730.72
2019-04-01T03:24:30.338Z,99735.00
2019-04-01T03:27:00.797Z,99738.69
2019-04-01T03:29:31.261Z,99740.80
2019-04-01T03:32:01.837Z,99749.13
2019-04-01T03:34:32.318Z,99743.44
2019-04-01T03:37:02.781Z,99742.65
2019-04-01T03:39:33.281Z,99741.63
2019-04-01T03:42:03.758Z,99744.42
2019-04-01T03:44:34.245Z,99747.97
2019-04-01T03:47:04.708Z,99743.22
2019-04-01T03:49:35.197Z,99745.82
2019-04-01T03:52:10.015Z,99741.89
2019-04-01T03:54:37.830Z,99749.65
2019-04-01T03:57:08.278Z,99759.08
2019-04-01T03:59:38.851Z,99750.61
2019-04-01T04:02:09.318Z,99749.46
2019-04-01T04:04:39.912Z,99753.41
2019-04-01T04:07:10.395Z,99749.90
2019-04-01T04:09:40.886Z,99750.39
2019-04-01T04:12:11.370Z,99755.78
2019-04-01T04:14:41.819Z,99754.96
2019-04-01T04:17:12.310Z,99754.96
2019-04-01T04:19:42.814Z,99755.28
2019-04-01T04:22:13.401Z,99748.84
2019-04-01T04:24:43.933Z,99752.16
2019-04-01T04:27:14.483Z,99751.10
2019-04-01T04:29:44.940Z,99749.65
2019-04-01T04:32:15.444Z,99748.19
2019-04-01T04:34:45.942Z,99744.36
2019-04-01T04:37:16.475Z,99758.63
2019-04-01T04:39:46.966Z,99755.19
2019-04-01T04:42:17.483Z,99758.50
2019-04-01T04:44:48.012Z,99759.47
2019-04-01T04:47:18.474Z,99760.16
2019-04-01T04:49:49.017Z,99770.47
2019-04-01T04:52:19.573Z,99768.73
2019-04-01T04:54:50.072Z,99768.75
2019-04-01T04:57:20.653Z,99783.64
2019-04-01T04:59:51.190Z,99782.13
2019-04-01T05:02:24.455Z,99787.47
2019-04-01T05:04:53.978Z,99789.30
2019-04-01T05:07:24.475Z,99786.83
2019-04-01T05:09:55.168Z,99791.76
2019-04-01T05:12:25.678Z,99793.36
2019-04-01T05:14:57.323Z,99792.83
2019-04-01T05:17:27.890Z,99793.83
2019-04-01T05:20:00.343Z,99799.26
2019-04-01T05:22:31.504Z,99796.56
2019-04-01T05:25:02.981Z,99798.06
2019-04-01T05:27:35.709Z,99799.69
2019-04-01T05:30:06.804Z,99802.84
2019-04-01T05:32:38.473Z,99807.45
2019-04-01T05:35:09.252Z,99805.52
2019-04-01T05:37:40.106Z,99796.34
2019-04-01T05:40:12.505Z,99799.83
2019-04-01T05:42:43.119Z,99797.61
2019-04-01T05:45:13.894Z,99795.11
2019-04-01T05:47:47.622Z,99793.24
2019-04-01T05:50:18.309Z,99800.31
2019-04-01T05:52:49.218Z,99801.50
2019-04-01T05:55:19.745Z,99805.73
2019-04-01T05:57:50.749Z,99803.14
2019-04-01T06:00:27.054Z,99809.38
2019-04-01T06:02:57.934Z,99808.20
2019-04-01T06:05:28.414Z,99813.93
2019-04-01T06:07:59.434Z,99819.13
2019-04-01T06:10:29.997Z,99819.70
2019-04-01T06:13:00.812Z,99817.07
2019-04-01T06:15:31.540Z,99818.98
2019-04-01T06:18:02.227Z,99815.86
2019-04-01T06:20:32.838Z,99816.74
2019-04-01T06:23:03.514Z,99809.88
2019-04-01T06:25:34.405Z,99812.10
2019-04-01T06:28:05.009Z,99807.69
2019-04-01T06:30:35.722Z,99807.95
2019-04-01T06:33:06.658Z,99806.92
2019-04-01T06:35:37.314Z,99805.05
2019-04-01T06:38:07.773Z,99812.53
2019-04-01T06:40:38.303Z,99713.27
2019-04-01T06:43:08.981Z,99817.50
2019-04-01T06:45:39.702Z,99821.16
2019-04-01T06:48:10.180Z,99814.14
2019-04-01T06:50:41.086Z,99815.03
2019-04-01T06:53:11.775Z,99813.77
2019-04-01T06:55:42.242Z,99816.31
2019-04-01T06:58:12.863Z,99818.85
2019-04-01T07:00:43.449Z,99817.58
2019-04-01T07:03:14.209Z,99815.91
2019-04-01T07:05:44.755Z,99820.09
2019-04-01T07:08:15.458Z,99819.02
2019-04-01T07:10:46.042Z,99821.75
2019-04-01T07:13:16.662Z,99822.31
2019-04-01T07:15:47.142Z,99822.59
2019-04-01T07:18:17.720Z,99821.54
2019-04-01T07:20:48.579Z,99817.97
2019-04-01T07:23:19.393Z,99819.97
2019-04-01T07:25:50.155Z,99817.77
2019-04-01T07:28:20.817Z,99821.83
2019-04-01T07:30:51.597Z,99818.05
2019-04-01T07:33:22.188Z,99809.30
2019-04-01T07:35:52.738Z,99809.30
2019-04-01T07:40:52.479Z,99810.37
2019-04-01T07:43:23.508Z,99817.23
2019-04-01T07:45:54.089Z,99814.48
2019-04-01T07:48:24.702Z,99819.68
2019-04-01T07:50:55.301Z,99814.22
2019-04-01T07:53:25.893Z,99811.70
2019-04-01T07:55:56.743Z,99807.28
2019-04-01T07:58:27.233Z,99805.38
2019-04-01T08:00:57.826Z,99810.03
2019-04-01T08:03:28.980Z,99800.93
2019-04-01T08:05:59.425Z,99804.15
2019-04-01T08:08:30.125Z,99806.52
2019-04-01T08:11:00.797Z,99802.09
2019-04-01T08:13:31.815Z,99796.13
2019-04-01T08:16:02.527Z,99798.67
2019-04-01T08:18:34.119Z,99802.39
2019-04-01T08:21:04.913Z,99791.08
2019-04-01T08:23:35.566Z,99799.43
2019-04-01T08:26:06.320Z,99791.44
2019-04-01T08:28:37.462Z,99792.73
2019-04-01T08:31:07.966Z,99791.53
2019-04-01T08:33:38.594Z,99799.97
2019-04-01T08:36:09.237Z,99789.14
2019-04-01T08:38:39.862Z,99789.23
2019-04-01T08:41:10.705Z,99783.85
2019-04-01T08:43:41.491Z,99774.70
2019-04-01T08:46:14.682Z,99775.78
2019-04-01T08:48:45.149Z,99775.20
2019-04-01T08:51:15.817Z,99773.84
2019-04-01T08:53:46.526Z,99767.73
2019-04-01T08:56:17.008Z,99765.67
2019-04-01T08:58:48.162Z,99767.69
2019-04-01T09:01:19.092Z,99764.05
2019-04-01T09:03:49.655Z,99760.62
2019-04-01T09:06:20.167Z,99762.34
2019-04-01T09:08:52.374Z,99755.75
2019-04-01T09:11:22.981Z,99757.89
2019-04-01T09:13:55.141Z,99756.62
2019-04-01T09:16:26.248Z,99751.92
2019-04-01T09:18:56.721Z,99752.52
2019-04-01T09:21:27.287Z,99746.45
2019-04-01T09:23:57.778Z,99743.99
2019-04-01T09:26:28.292Z,99740.33
2019-04-01T09:28:58.846Z,99735.32
2019-04-01T09:31:29.392Z,99738.58
2019-04-01T09:34:00.055Z,99726.95
2019-04-01T09:36:30.525Z,99731.19
2019-04-01T09:39:01.133Z,99651.39
2019-04-01T09:41:31.594Z,99731.26
2019-04-01T09:44:02.183Z,99715.55
2019-04-01T09:46:32.648Z,99718.35
2019-04-01T09:49:03.121Z,99715.69
2019-04-01T09:51:47.558Z,99716.74
2019-04-01T09:54:05.896Z,99716.85
2019-04-01T09:56:36.400Z,99713.09
2019-04-01T09:59:07.059Z,99709.72
2019-04-01T10:01:37.518Z,99705.83
2019-04-01T10:04:08.129Z,99707.23
2019-04-01T10:06:38.749Z,99704.98
2019-04-01T10:09:10.223Z,99703.30
2019-04-01T10:11:40.843Z,99704.20
2019-04-01T10:14:11.287Z,99705.47
2019-04-01T10:16:41.808Z,99699.50
2019-04-01T10:19:12.471Z,99696.37
2019-04-01T10:21:45.306Z,99699.02
2019-04-01T10:24:15.141Z,99695.53
2019-04-01T10:26:45.606Z,99698.70
2019-04-01T10:29:16.276Z,99695.03
2019-04-01T10:31:46.907Z,99694.16
2019-04-01T10:34:17.435Z,99690.13
2019-04-01T10:36:47.988Z,99685.66
2019-04-01T10:39:18.606Z,99687.84
2019-04-01T10:41:49.167Z,99687.16
2019-04-01T10:44:19.800Z,99677.23
2019-04-01T10:46:50.298Z,99674.34
2019-04-01T10:49:21.322Z,99675.72
2019-04-01T10:51:51.871Z,99670.75
2019-04-01T10:54:22.510Z,99662.84
2019-04-01T10:56:53.006Z,99661.28
2019-04-01T10:59:23.677Z,99661.70
2019-04-01T11:01:54.202Z,99662.51
2019-04-01T11:04:24.804Z,99661.98
2019-04-01T11:06:55.323Z,99653.65
2019-04-01T11:09:37.673Z,99635.92
2019-04-01T11:11:58.310Z,99645.38
2019-04-01T11:14:28.861Z,99637.23
2019-04-01T11:16:59.366Z,99637.00
2019-04-01T11:19:29.852Z,99639.36
2019-04-01T11:22:03.801Z,99631.25
2019-04-01T11:24:34.405Z,99628.77
2019-04-01T11:27:04.958Z,99627.27
2019-04-01T11:29:35.456Z,99634.81
2019-04-01T11:32:07.589Z,99636.40
2019-04-01T11:34:38.243Z,99637.12
2019-04-01T11:37:08.722Z,99628.85
2019-04-01T11:39:39.452Z,99633.91
2019-04-01T11:42:10.076Z,99629.72
2019-04-01T11:44:40.603Z,99629.99
2019-04-01T11:47:11.210Z,99622.75
2019-04-01T11:49:41.876Z,99620.08
2019-04-01T11:52:15.408Z,99610.62
2019-04-01T11:54:44.648Z,99607.47
2019-04-01T11:57:15.221Z,99610.89
2019-04-01T11:59:45.736Z,99605.98
2019-04-01T12:02:16.636Z,99603.11
2019-04-01T12:04:47.378Z,99600.29
2019-04-01T12:07:17.849Z,99595.70
2019-04-01T12:09:52.002Z,99582.52
2019-04-01T12:12:23.785Z,99588.02
2019-04-01T12:14:52.831Z,99581.45
2019-04-01T12:17:23.332Z,99588.09
2019-04-01T12:19:53.786Z,99584.70
2019-04-01T12:22:24.378Z,99587.33
2019-04-01T12:24:55.485Z,99573.61
2019-04-01T12:27:25.958Z,99577.95
2019-04-01T12:29:56.651Z,99567.58
2019-04-01T12:32:27.114Z,99569.09
2019-04-01T12:34:57.696Z,99571.93
2019-04-01T12:37:30.065Z,99565.71
2019-04-01T12:40:00.498Z,99565.61
2019-04-01T12:42:31.167Z,99571.56
2019-04-01T12:45:01.632Z,99554.89
2019-04-01T12:47:32.336Z,99554.16
2019-04-01T12:50:02.899Z,99550.39
2019-04-01T12:52:33.542Z,99546.32
2019-04-01T12:55:04.053Z,99549.88
2019-04-01T12:57:34.546Z,99551.23
2019-04-01T13:00:06.129Z,99536.37
2019-04-01T13:02:36.632Z,99540.56
2019-04-01T13:05:07.540Z,99536.81
2019-04-01T13:07:38.438Z,99526.22
2019-04-01T13:10:09.944Z,99532.73
2019-04-01T13:12:40.429Z,99534.13
2019-04-01T13:15:12.562Z,99523.19
2019-04-01T13:17:44.630Z,99527.45
2019-04-01T13:20:15.341Z,99530.32
2019-04-01T13:22:45.809Z,99528.48
2019-04-01T13:25:16.427Z,99532.12
2019-04-01T13:27:46.887Z,99527.95
2019-04-01T13:30:17.600Z,99524.84
2019-04-01T13:32:48.821Z,99518.19
2019-04-01T13:35:19.335Z,99519.44
2019-04-01T13:37:49.794Z,99517.11
2019-04-01T13:40:20.286Z,99508.75
2019-04-01T13:42:50.816Z,99516.03
2019-04-01T13:45:21.778Z,99515.91
2019-04-01T13:47:52.273Z,99518.03
2019-04-01T13:50:22.748Z,99513.58
2019-04-01T13:52:53.353Z,99514.00
2019-04-01T13:55:23.836Z,99519.25
2019-04-01T13:57:54.339Z,99516.22
2019-04-01T14:00:27.403Z,99516.61
2019-04-01T14:02:57.006Z,99512.55
2019-04-01T14:05:27.542Z,99518.84
2019-04-01T14:07:58.076Z,99510.48
2019-04-01T14:10:28.598Z,99511.23
2019-04-01T14:12:59.115Z,99514.08
2019-04-01T14:15:29.704Z,99514.00
2019-04-01T14:18:00.205Z,99514.23
2019-04-01T14:20:30.683Z,99513.20
2019-04-01T14:23:01.205Z,99516.11
2019-04-01T14:25:34.673Z,99507.83
2019-04-01T14:28:04.052Z,99510.82
2019-04-01T14:30:36.155Z,99512.74
2019-04-01T14:33:07.960Z,99508.60
2019-04-01T14:35:38.465Z,99512.32
2019-04-01T14:38:08.916Z,99512.39
2019-04-01T14:40:39.424Z,99509.64
2019-04-01T14:43:10.328Z,99515.50
2019-04-01T14:45:40.765Z,99511.63
2019-04-01T14:48:11.348Z,99429.39
2019-04-01T14:50:41.933Z,99511.36
2019-04-01T14:53:12.859Z,99511.78
2019-04-01T14:55:43.366Z,99513.93
2019-04-01T14:58:13.811Z,99508.45
2019-04-01T15:00:44.268Z,99505.53
2019-04-01T15:03:14.761Z,99506.16
2019-04-01T15:05:45.299Z,99507.68
2019-04-01T15:08:19.316Z,99506.11
2019-04-01T15:10:48.229Z,99511.17
2019-04-01T15:13:18.792Z,99506.41
2019-04-01T15:15:49.390Z,99517.59
2019-04-01T15:18:19.865Z,99513.56
2019-04-01T15:20:50.571Z,99511.38
2019-04-01T15:23:21.020Z,99512.06
2019-04-01T15:25:54.222Z,99515.26
2019-04-01T15:28:23.657Z,99515.81
2019-04-01T15:30:54.143Z,99518.56
2019-04-01T15:33:24.589Z,99519.81
2019-04-01T15:35:55.067Z,99516.81
2019-04-01T15:38:25.519Z,99516.05
2019-04-01T15:40:58.181Z,99517.83
2019-04-01T15:43:28.277Z,99519.67
2019-04-01T15:45:58.731Z,99531.13
2019-04-01T15:48:29.259Z,99525.31
2019-04-01T15:51:01.749Z,99535.83
2019-04-01T15:53:32.175Z,99532.25
2019-04-01T15:56:02.611Z,99529.29
2019-04-01T15:58:33.002Z,99531.84
2019-04-01T16:01:03.588Z,99533.84
2019-04-01T16:03:34.015Z,99534.50
2019-04-01T16:06:07.458Z,99538.19
2019-04-01T16:08:36.795Z,99535.79
2019-04-01T16:11:07.303Z,99539.11
2019-04-01T16:13:37.700Z,99538.20
2019-04-01T16:16:08.330Z,99545.55
2019-04-01T16:18:38.815Z,99546.25
2019-04-01T16:21:09.213Z,99546.09
2019-04-01T16:23:39.710Z,99546.25
2019-04-01T16:26:10.159Z,99546.08
2019-04-01T16:28:40.543Z,99549.00
2019-04-01T16:31:11.087Z,99553.30
2019-04-01T16:33:41.507Z,99551.52
2019-04-01T16:36:11.952Z,99561.86
2019-04-01T16:38:42.447Z,99561.16
2019-04-01T16:41:12.896Z,99563.51
2019-04-01T16:43:43.394Z,99565.83
2019-04-01T16:46:13.846Z,99568.97
2019-04-01T16:48:46.446Z,99572.63
2019-04-01T16:51:16.424Z,99571.95
2019-04-01T16:53:46.909Z,99576.45
2019-04-01T16:56:17.312Z,99581.22
2019-04-01T16:58:47.801Z,99583.56
2019-04-01T17:01:18.315Z,99584.45
2019-04-01T17:03:48.929Z,99588.94
2019-04-01T17:06:21.728Z,99595.70
2019-04-01T17:08:52.258Z,99601.51
2019-04-01T17:11:22.828Z,99604.04
2019-04-01T17:13:53.373Z,99610.41
2019-04-01T17:16:23.773Z,99617.05
2019-04-01T17:18:57.518Z,99617.42
2019-04-01T17:21:26.418Z,99620.00
2019-04-01T17:23:56.890Z,99626.39
2019-04-01T17:26:27.360Z,99623.98
2019-04-01T17:28:57.796Z,99638.83
2019-04-01T17:31:28.187Z,99637.78
2019-04-01T17:33:58.622Z,99644.17
2019-04-01T17:36:29.082Z,99646.95
2019-04-01T17:38:59.510Z,99649.50
2019-04-01T17:41:30.059Z,99652.81
2019-04-01T17:44:00.832Z,99663.21
2019-04-01T17:46:31.613Z,99664.62
2019-04-01T17:49:02.103Z,99673.70
2019-04-01T17:51:32.622Z,99677.56
2019-04-01T17:54:03.100Z,99683.87
2019-04-01T17:56:33.567Z,99686.36
2019-04-01T17:59:04.273Z,99686.64
2019-04-01T18:01:35.771Z,99692.14
2019-04-01T18:04:06.328Z,99697.61
2019-04-01T18:06:36.820Z,99702.86
2019-04-01T18:09:08.605Z,99704.23
2019-04-01T18:11:39.034Z,99710.27
2019-04-01T18:14:09.490Z,99709.73
2019-04-01T18:16:43.069Z,99712.75
2019-04-01T18:19:16.160Z,99717.38
2019-04-01T18:21:46.670Z,99728.08
2019-04-01T18:24:17.127Z,99739.00
2019-04-01T18:26:48.015Z,99742.84
2019-04-01T18:29:18.851Z,99741.73
2019-04-01T18:31:49.323Z,99743.38
2019-04-01T18:34:19.843Z,99748.03
2019-04-01T18:36:52.202Z,99754.61
2019-04-01T18:39:22.971Z,99755.38
2019-04-01T18:41:53.412Z,99749.11
2019-04-01T18:44:26.319Z,99758.39
2019-04-01T18:46:57.150Z,99763.29
2019-04-01T18:49:27.554Z,99759.75
2019-04-01T18:52:00.059Z,99756.47
2019-04-01T18:54:30.622Z,99762.20
2019-04-01T18:57:03.625Z,99766.28
2019-04-01T18:59:33.182Z,99773.41
2019-04-01T19:02:04.651Z,99781.58
2019-04-01T19:04:35.097Z,99779.92
2019-04-01T19:07:08.543Z,99788.37
2019-04-01T19:09:39.070Z,99785.64
2019-04-01T19:12:10.367Z,99795.72
2019-04-01T19:14:41.283Z,99797.90
2019-04-01T19:17:11.777Z,99795.16
2019-04-01T19:19:42.727Z,99800.88
2019-04-01T19:22:13.389Z,99804.67
2019-04-01T19:24:43.838Z,99807.66
2019-04-01T19:27:14.245Z,99809.59
2019-04-01T19:29:45.521Z,99816.11
2019-04-01T19:32:16.507Z,99813.67
2019-04-01T19:34:47.033Z,99813.11
2019-04-01T19:37:18.292Z,99815.29
2019-04-01T19:39:50.173Z,99813.88
2019-04-01T19:42:22.022Z,99818.23
2019-04-01T19:44:52.437Z,99819.59
2019-04-01T19:47:23.141Z,99815.14
2019-04-01T19:49:54.236Z,99810.20
2019-04-01T19:52:26.132Z,99815.91
2019-04-01T19:54:56.763Z,99818.32
2019-04-01T19:57:28.043Z,99814.75
2019-04-01T19:59:58.806Z,99816.84
2019-04-01T20:02:30.582Z,99822.30
2019-04-01T20:05:00.987Z,99826.63
2019-04-01T20:07:31.434Z,99826.81
2019-04-01T20:10:04.630Z,99824.31
2019-04-01T20:12:34.023Z,99821.25
2019-04-01T20:15:05.059Z,99824.74
2019-04-01T20:17:35.526Z,99823.32
2019-04-01T20:20:06.716Z,99822.72
2019-04-01T20:22:37.122Z,99826.50
2019-04-01T20:25:08.352Z,99822.33
2019-04-01T20:27:38.793Z,99831.28
2019-04-01T20:30:09.962Z,99830.92
2019-04-01T20:32:40.415Z,99836.80
2019-04-01T20:35:22.581Z,99834.59
2019-04-01T20:37:43.585Z,99836.14
2019-04-01T20:40:14.877Z,99833.13
2019-04-01T20:42:46.338Z,99840.70
2019-04-01T20:45:17.673Z,99837.66
2019-04-01T20:47:50.322Z,99838.70
2019-04-01T20:50:20.533Z,99839.47
2019-04-01T20:52:51.015Z,99839.42
2019-04-01T20:55:21.619Z,99840.43
2019-04-01T20:57:52.105Z,99839.53
2019-04-01T21:00:22.708Z,99844.89
2019-04-01T21:02:53.151Z,99852.77
2019-04-01T21:05:24.224Z,99852.44
2019-04-01T21:07:54.867Z,99850.75
2019-04-01T21:10:25.275Z,99857.77
2019-04-01T21:12:55.672Z,99862.61
2019-04-01T21:15:26.105Z,99865.27
2019-04-01T21:17:56.498Z,99862.79
2019-04-01T21:20:26.898Z,99872.53
2019-04-01T21:22:57.327Z,99867.02
2019-04-01T21:25:27.725Z,99863.73
2019-04-01T21:27:58.160Z,99868.83
2019-04-01T21:30:28.661Z,99871.25
2019-04-01T21:32:59.107Z,99875.55
2019-04-01T21:35:29.510Z,99874.15
2019-04-01T21:37:59.958Z,99874.42
2019-04-01T21:40:30.362Z,99876.80
2019-04-01T21:43:03.136Z,99877.05
2019-04-01T21:45:32.884Z,99877.01
2019-04-01T21:48:03.273Z,99884.05
2019-04-01T21:50:34.995Z,99892.41
2019-04-01T21:53:05.626Z,99888.84
2019-04-01T21:55:36.023Z,99895.03
2019-04-01T21:58:06.501Z,99903.36
2019-04-01T22:00:56.788Z,99902.98
2019-04-01T22:03:27.329Z,99906.14
2019-04-01T22:05:57.767Z,99910.65
2019-04-01T22:08:28.200Z,99911.16
2019-04-01T22:10:58.653Z,99912.36
2019-04-01T22:13:29.058Z,99911.74
2019-04-01T22:15:59.553Z,99917.37
2019-04-01T22:18:32.761Z,99922.73
2019-04-01T22:21:02.089Z,99927.00
2019-04-01T22:23:32.493Z,99922.18
2019-04-01T22:26:03.073Z,99928.39
2019-04-01T22:28:33.535Z,99829.58
2019-04-01T22:31:04.029Z,99930.16
2019-04-01T22:33:34.534Z,99929.49
2019-04-01T22:36:04.983Z,99934.11
2019-04-01T22:38:35.618Z,99927.01
2019-04-01T22:41:06.143Z,99928.32
2019-04-01T22:43:36.585Z,99929.87
2019-04-01T22:46:06.985Z,99926.39
2019-04-01T22:48:37.424Z,99922.64
2019-04-01T22:51:08.681Z,99928.30
2019-04-01T22:53:39.441Z,99918.61
2019-04-01T22:56:09.887Z,99928.66
2019-04-01T22:58:40.291Z,99928.89
2019-04-01T23:01:10.701Z,99923.31
2019-04-01T23:03:41.105Z,99928.44
2019-04-01T23:06:11.575Z,99929.16
2019-04-01T23:08:41.966Z,99925.72
2019-04-01T23:11:12.365Z,99932.31
2019-04-01T23:13:42.809Z,99933.14
2019-04-01T23:16:13.476Z,99940.56
2019-04-01T23:18:43.925Z,99938.38
2019-04-01T23:21:14.356Z,99943.81
2019-04-01T23:23:44.793Z,99949.02
2019-04-01T23:26:15.237Z,99943.27
2019-04-01T23:28:45.637Z,99945.17
2019-04-01T23:31:16.196Z,99950.25
2019-04-01T23:33:47.594Z,99957.17
2019-04-01T23:36:18.033Z,99962.33
2019-04-01T23:38:48.446Z,99957.94
2019-04-01T23:41:18.852Z,99957.03
2019-04-01T23:43:49.257Z,99954.18
2019-04-01T23:46:19.694Z,99962.33
2019-04-01T23:48:50.129Z,99952.19
2019-04-01T23:51:20.612Z,99952.64
2019-04-01T23:53:51.064Z,99962.09
2019-04-01T23:56:21.506Z,99957.38
2019-04-01T23:58:51.940Z,99958.96
